Time;durP1;ratioP1;P1;durP2;ratioP2;P2;SDS_P1;SDS_P2;PMS_P1;PMS_P2;Temp;Humidity;BMP_temperature;BMP_pressure;BME280_temperature;BME280_humidity;BME280_pressure;Samples;Min_cycle;Max_cycle;Signal;HPM_P1;HPM_P2
2023/04/24 00:00:35;;;;;;;9.13;8.23;;;15.50;99.90;;;;;;5035158;28;20033;-62
2023/04/24 00:03:02;;;;;;;8.48;7.18;;;15.10;99.90;;;;;;5035285;28;20053;-62
2023/04/24 00:05:28;;;;;;;12.10;8.73;;;14.90;99.90;;;;;;5035145;28;20021;-62
2023/04/24 00:07:55;;;;;;;7.88;7.18;;;15.20;99.90;;;;;;5033887;28;20028;-62
2023/04/24 00:10:30;;;;;;;8.68;7.80;;;14.90;99.90;;;;;;5047620;28;20509;-62
2023/04/24 00:12:55;;;;;;;10.80;8.25;;;15.10;99.90;;;;;;5035344;28;20163;-62
2023/04/24 00:15:21;;;;;;;8.27;7.40;;;15.20;99.90;;;;;;5034862;28;20096;-62
2023/04/24 00:17:47;;;;;;;7.88;7.05;;;15.20;99.90;;;;;;5035298;28;20029;-62
2023/04/24 00:20:14;;;;;;;9.75;8.73;;;14.90;99.90;;;;;;5034861;28;20025;-62
2023/04/24 00:22:40;;;;;;;10.55;9.30;;;15.10;99.90;;;;;;5021279;28;20471;-62
2023/04/24 00:25:06;;;;;;;8.43;7.55;;;15.10;99.90;;;;;;5033508;28;20187;-63
2023/04/24 00:27:32;;;;;;;10.88;9.23;;;14.90;99.90;;;;;;5034710;28;20479;-62
2023/04/24 00:29:57;;;;;;;12.10;8.85;;;15.10;99.90;;;;;;5034648;28;20040;-62
2023/04/24 00:32:23;;;;;;;12.07;9.40;;;15.10;99.90;;;;;;5032879;28;20502;-62
2023/04/24 00:34:48;;;;;;;10.05;9.05;;;15.10;99.90;;;;;;5033820;28;20032;-62
2023/04/24 00:37:14;;;;;;;12.95;8.85;;;15.10;99.90;;;;;;5034729;28;20036;-62
2023/04/24 00:39:40;;;;;;;10.02;9.00;;;15.10;99.90;;;;;;5034680;28;20032;-62
2023/04/24 00:42:06;;;;;;;12.15;9.07;;;15.10;99.90;;;;;;5034457;28;20446;-62
2023/04/24 00:44:34;;;;;;;10.55;8.68;;;15.10;99.90;;;;;;5046747;28;20029;-62
2023/04/24 00:47:00;;;;;;;8.40;7.57;;;15.10;99.90;;;;;;5050050;28;20041;-62
2023/04/24 00:49:26;;;;;;;11.10;8.50;;;15.20;99.90;;;;;;5034159;28;20425;-62
2023/04/24 00:51:53;;;;;;;11.95;10.18;;;15.20;99.90;;;;;;5033910;28;20029;-62
2023/04/24 00:54:19;;;;;;;9.23;8.18;;;15.20;99.90;;;;;;5054220;28;20013;-61
2023/04/24 00:56:45;;;;;;;8.68;7.32;;;15.20;99.90;;;;;;5053618;28;20017;-61
2023/04/24 00:59:17;;;;;;;8.85;7.45;;;15.20;99.90;;;;;;5034229;28;20033;-61
2023/04/24 01:01:44;;;;;;;9.90;7.22;;;15.10;99.90;;;;;;5032835;28;20032;-61
2023/04/24 01:04:11;;;;;;;9.10;8.20;;;15.20;99.90;;;;;;5034052;28;20029;-61
2023/04/24 01:06:39;;;;;;;8.52;7.47;;;15.10;99.90;;;;;;5034336;28;20036;-61
2023/04/24 01:09:05;;;;;;;8.90;8.05;;;15.10;99.90;;;;;;5034036;28;20060;-61
2023/04/24 01:11:31;;;;;;;9.25;8.35;;;15.00;99.90;;;;;;5043355;28;20079;-62
2023/04/24 01:13:57;;;;;;;9.32;8.43;;;15.20;99.90;;;;;;5052176;28;20509;-62
2023/04/24 01:16:22;;;;;;;10.93;9.05;;;15.10;99.90;;;;;;5033977;28;20057;-62
2023/04/24 01:18:48;;;;;;;10.95;9.80;;;15.20;99.90;;;;;;5033833;28;20078;-62
2023/04/24 01:21:16;;;;;;;10.48;7.95;;;15.30;99.90;;;;;;5033906;28;20021;-62
2023/04/24 01:23:43;;;;;;;10.13;8.38;;;15.30;99.90;;;;;;5033654;28;20045;-62
2023/04/24 01:26:09;;;;;;;8.98;8.02;;;15.40;99.90;;;;;;5033593;28;20021;-62
2023/04/24 01:28:34;;;;;;;9.25;8.35;;;15.40;99.90;;;;;;5033835;28;20040;-62
2023/04/24 01:31:00;;;;;;;10.20;8.93;;;15.40;99.90;;;;;;5033718;28;20037;-62
2023/04/24 01:33:26;;;;;;;10.38;9.27;;;15.50;99.90;;;;;;5033506;28;20033;-63
2023/04/24 01:35:52;;;;;;;10.27;8.45;;;15.40;99.90;;;;;;5033185;28;20066;-62
2023/04/24 01:38:18;;;;;;;11.13;9.57;;;15.40;99.90;;;;;;5032657;28;20056;-63
2023/04/24 01:40:44;;;;;;;11.80;9.75;;;15.40;99.90;;;;;;5036376;28;20060;-63
2023/04/24 01:43:09;;;;;;;10.45;9.43;;;15.40;99.90;;;;;;5044431;28;20120;-62
2023/04/24 01:45:35;;;;;;;8.73;7.80;;;15.40;99.90;;;;;;5041225;28;20096;-62
2023/04/24 01:48:01;;;;;;;13.88;8.82;;;15.40;99.90;;;;;;5039416;28;20037;-62
2023/04/24 01:50:26;;;;;;;10.88;9.57;;;15.40;99.90;;;;;;5033465;28;20034;-62
2023/04/24 01:52:52;;;;;;;11.02;9.88;;;15.50;99.90;;;;;;5033297;28;20426;-62
2023/04/24 01:55:18;;;;;;;10.55;8.95;;;15.40;99.90;;;;;;5047147;28;20506;-62
2023/04/24 01:57:44;;;;;;;10.98;9.88;;;15.30;99.90;;;;;;5033505;28;20040;-62
2023/04/24 02:00:11;;;;;;;11.85;10.05;;;15.40;99.90;;;;;;5033301;28;20037;-62
2023/04/24 02:02:38;;;;;;;11.43;10.05;;;15.50;99.90;;;;;;5033070;28;20530;-62
2023/04/24 02:05:06;;;;;;;13.65;10.80;;;15.60;99.90;;;;;;5032993;28;20034;-62
2023/04/24 02:07:32;;;;;;;12.80;10.52;;;15.60;99.90;;;;;;5033108;28;20422;-62
2023/04/24 02:09:58;;;;;;;10.82;9.80;;;15.60;94.10;;;;;;5033085;28;20033;-62
2023/04/24 02:12:24;;;;;;;11.57;10.45;;;15.70;56.10;;;;;;5046933;28;20021;-62
2023/04/24 02:15:21;;;;;;;11.38;10.25;;;15.70;37.80;;;;;;5033145;28;20088;-62
2023/04/24 02:17:47;;;;;;;11.25;10.07;;;15.70;53.30;;;;;;5019429;28;20175;-62
2023/04/24 02:20:17;;;;;;;12.52;11.02;;;15.60;22.20;;;;;;5032845;28;20056;-62
2023/04/24 02:22:42;;;;;;;13.70;11.43;;;15.60;23.30;;;;;;5032759;28;20025;-62
2023/04/24 02:25:09;;;;;;;12.80;11.48;;;15.70;15.30;;;;;;5033050;28;20026;-62
2023/04/24 02:27:34;;;;;;;13.38;11.73;;;15.70;13.50;;;;;;5032633;28;20037;-62
2023/04/24 02:30:00;;;;;;;12.45;10.10;;;15.80;12.50;;;;;;5032972;28;20356;-62
2023/04/24 02:33:09;;;;;;;11.75;10.55;;;15.70;11.50;;;;;;5032687;28;20052;-62
2023/04/24 02:35:35;;;;;;;13.95;12.43;;;15.70;21.70;;;;;;5032766;28;20053;-61
2023/04/24 02:38:01;;;;;;;13.15;10.88;;;15.70;10.60;;;;;;5032653;28;20025;-61
2023/04/24 02:40:26;;;;;;;11.90;9.88;;;15.70;8.40;;;;;;5025773;28;20025;-61
2023/04/24 02:42:52;;;;;;;11.95;10.50;;;15.70;8.20;;;;;;5032566;28;20038;-61
2023/04/24 02:45:17;;;;;;;14.15;11.93;;;15.60;6.90;;;;;;5040562;28;20105;-62
2023/04/24 02:47:43;;;;;;;15.13;11.50;;;15.70;6.40;;;;;;5039206;28;20363;-61
2023/04/24 02:50:09;;;;;;;13.18;11.88;;;15.60;6.00;;;;;;5031260;28;20459;-62
2023/04/24 02:52:35;;;;;;;13.85;12.45;;;15.60;6.20;;;;;;5032650;28;20368;-62
2023/04/24 02:55:00;;;;;;;14.43;12.80;;;15.50;4.90;;;;;;5032717;28;20030;-62
2023/04/24 02:57:26;;;;;;;13.68;12.15;;;15.60;4.80;;;;;;5036734;28;20025;-61
2023/04/24 02:59:52;;;;;;;16.58;12.63;;;15.50;4.60;;;;;;5036650;28;20080;-61
2023/04/24 03:02:17;;;;;;;14.75;13.23;;;15.50;7.00;;;;;;5036638;28;20353;-62
2023/04/24 03:04:43;;;;;;;15.27;13.07;;;15.50;7.70;;;;;;5036317;28;20075;-62
2023/04/24 03:07:08;;;;;;;16.27;13.60;;;15.50;7.90;;;;;;5036254;28;20037;-62
2023/04/24 03:09:34;;;;;;;16.08;14.38;;;15.50;9.00;;;;;;5036217;28;20037;-62
2023/04/24 03:12:01;;;;;;;16.83;13.70;;;15.50;9.90;;;;;;5036135;28;20026;-61
2023/04/24 03:14:27;;;;;;;14.73;13.25;;;15.50;13.10;;;;;;5036218;28;20060;-62
2023/04/24 03:16:53;;;;;;;19.23;13.02;;;15.50;13.10;;;;;;5034768;28;20064;-61
2023/04/24 03:19:18;;;;;;;14.15;12.55;;;15.50;14.50;;;;;;5036205;28;20025;-61
2023/04/24 03:21:44;;;;;;;12.93;11.73;;;15.50;15.80;;;;;;5035654;28;20036;-62
2023/04/24 03:24:09;;;;;;;12.77;10.65;;;15.40;15.60;;;;;;5036041;28;20436;-61
2023/04/24 03:26:39;;;;;;;11.63;9.80;;;15.50;15.40;;;;;;5036159;28;20529;-61
2023/04/24 03:29:05;;;;;;;11.65;10.48;;;15.50;18.00;;;;;;5035815;28;20033;-61
2023/04/24 03:31:30;;;;;;;10.05;9.05;;;15.40;24.80;;;;;;5035887;28;20459;-61
2023/04/24 03:33:56;;;;;;;9.75;8.68;;;15.30;29.80;;;;;;5036017;28;20479;-61
2023/04/24 03:36:21;;;;;;;9.60;8.63;;;15.40;36.00;;;;;;5035559;28;20044;-61
2023/04/24 03:38:47;;;;;;;9.13;8.15;;;15.30;45.80;;;;;;5035939;28;20030;-61
2023/04/24 03:41:13;;;;;;;8.35;7.65;;;15.30;49.40;;;;;;5035767;28;20022;-61
2023/04/24 03:43:39;;;;;;;9.63;7.38;;;15.30;49.80;;;;;;5035689;28;20021;-61
2023/04/24 03:46:04;;;;;;;8.00;7.20;;;15.30;50.20;;;;;;5048324;28;20423;-61
2023/04/24 03:48:30;;;;;;;9.48;6.93;;;15.30;52.10;;;;;;5035751;28;20021;-61
2023/04/24 03:50:56;;;;;;;8.85;7.15;;;15.30;58.10;;;;;;5035519;28;20467;-63
2023/04/24 03:53:21;;;;;;;10.20;7.90;;;15.30;59.40;;;;;;5035413;28;20364;-61
2023/04/24 03:55:47;;;;;;;7.93;7.13;;;15.30;58.20;;;;;;5035566;28;20033;-61
2023/04/24 03:58:14;;;;;;;8.43;7.55;;;15.20;57.00;;;;;;5034028;28;20036;-61
2023/04/24 04:00:40;;;;;;;7.60;6.78;;;15.20;56.80;;;;;;5035321;28;20025;-61
2023/04/24 04:03:06;;;;;;;7.22;6.32;;;15.20;52.80;;;;;;5035281;28;20076;-62
2023/04/24 04:05:32;;;;;;;7.15;6.45;;;15.20;48.10;;;;;;5035518;28;20021;-61
2023/04/24 04:07:57;;;;;;;8.38;7.57;;;15.20;45.50;;;;;;5035122;28;20498;-61
2023/04/24 04:10:29;;;;;;;9.15;7.65;;;15.20;39.80;;;;;;5034986;28;20034;-61
2023/04/24 04:12:55;;;;;;;8.98;8.07;;;15.20;37.10;;;;;;5035243;28;20029;-61
2023/04/24 04:15:20;;;;;;;8.45;7.57;;;15.10;26.40;;;;;;5033757;28;20112;-61
2023/04/24 04:17:46;;;;;;;9.90;7.22;;;15.10;18.60;;;;;;5033784;28;20017;-61
2023/04/24 04:20:13;;;;;;;9.38;7.88;;;15.10;3.20;;;;;;5033894;28;20464;-61
2023/04/24 04:22:39;;;;;;;9.27;8.30;;;15.20;1.00;;;;;;5034953;28;20030;-61
2023/04/24 04:25:05;;;;;;;7.78;6.95;;;15.20;1.00;;;;;;5034866;28;20104;-61
2023/04/24 04:27:31;;;;;;;7.43;6.60;;;15.20;1.00;;;;;;5034745;28;20123;-61
2023/04/24 04:30:04;;;;;;;7.82;7.13;;;15.20;1.00;;;;;;5034673;28;20033;-61
2023/04/24 04:32:33;;;;;;;9.30;7.93;;;15.10;1.00;;;;;;5034974;28;20061;-61
2023/04/24 04:35:02;;;;;;;10.50;8.80;;;15.10;1.00;;;;;;5034506;28;20437;-61
2023/04/24 04:37:34;;;;;;;9.75;8.85;;;15.10;1.00;;;;;;5034683;28;20025;-61
2023/04/24 04:40:01;;;;;;;10.65;7.68;;;15.10;1.00;;;;;;5034787;28;20120;-61
2023/04/24 04:42:28;;;;;;;9.05;8.15;;;15.10;1.00;;;;;;5034568;28;20055;-61
2023/04/24 04:44:53;;;;;;;7.88;7.18;;;15.10;1.00;;;;;;5038890;28;20371;-61
2023/04/24 04:47:23;;;;;;;9.13;7.97;;;15.10;1.00;;;;;;5044038;28;20022;-61
2023/04/24 04:49:51;;;;;;;8.23;7.28;;;15.10;1.00;;;;;;5033082;28;20166;-61
2023/04/24 04:52:17;;;;;;;7.78;6.97;;;15.10;1.00;;;;;;5034637;28;20056;-61
2023/04/24 04:54:43;;;;;;;7.38;6.68;;;15.10;1.00;;;;;;5034326;28;20052;-61
2023/04/24 04:57:08;;;;;;;10.50;8.00;;;15.10;1.00;;;;;;5034498;28;20022;-61
2023/04/24 04:59:34;;;;;;;8.80;6.65;;;15.00;1.00;;;;;;5034391;28;20478;-61
2023/04/24 05:02:00;;;;;;;8.07;7.18;;;15.10;1.00;;;;;;5034132;28;20028;-61
2023/04/24 05:04:26;;;;;;;8.27;7.47;;;15.10;1.00;;;;;;5034177;28;20026;-61
2023/04/24 05:06:52;;;;;;;8.35;6.70;;;15.10;1.00;;;;;;5031726;28;20124;-61
2023/04/24 05:09:18;;;;;;;9.13;7.78;;;15.10;1.00;;;;;;5046056;28;20537;-61
2023/04/24 05:11:44;;;;;;;8.45;7.30;;;15.00;1.00;;;;;;5035272;28;20025;-61
2023/04/24 05:14:13;;;;;;;8.52;7.72;;;15.00;1.00;;;;;;5046705;28;20037;-61
2023/04/24 05:16:39;;;;;;;8.75;7.88;;;15.10;1.00;;;;;;5039228;28;20471;-61
2023/04/24 05:19:05;;;;;;;10.82;7.72;;;15.00;1.00;;;;;;5042438;28;20394;-61
2023/04/24 05:21:31;;;;;;;9.15;8.25;;;15.00;1.00;;;;;;5032827;28;20108;-61
2023/04/24 05:23:57;;;;;;;7.53;6.78;;;15.00;1.00;;;;;;5034027;28;20025;-61
2023/04/24 05:26:22;;;;;;;9.00;8.10;;;15.10;1.00;;;;;;5047707;28;20437;-61
2023/04/24 05:28:48;;;;;;;9.25;7.90;;;15.00;1.00;;;;;;5033672;28;20433;-61
2023/04/24 05:31:14;;;;;;;9.10;8.20;;;15.00;1.00;;;;;;5033925;28;20159;-61
2023/04/24 05:33:39;;;;;;;8.13;7.03;;;15.10;1.00;;;;;;5033518;28;20383;-61
2023/04/24 05:36:06;;;;;;;7.88;6.85;;;15.00;1.00;;;;;;5033358;28;20058;-61
2023/04/24 05:38:57;;;;;;;8.88;7.18;;;15.00;1.00;;;;;;5033566;28;20429;-61
2023/04/24 05:41:22;;;;;;;6.70;6.05;;;15.00;1.00;;;;;;5033387;28;20034;-61
2023/04/24 05:43:48;;;;;;;6.32;5.72;;;15.00;1.00;;;;;;5047323;28;20017;-61
2023/04/24 05:46:14;;;;;;;7.60;6.40;;;15.00;1.00;;;;;;5033647;28;20029;-61
2023/04/24 05:48:39;;;;;;;10.60;6.60;;;15.10;1.00;;;;;;5033174;28;20490;-61
2023/04/24 05:51:05;;;;;;;8.02;6.57;;;15.10;1.00;;;;;;5033349;28;20479;-61
2023/04/24 05:53:31;;;;;;;8.98;7.32;;;15.00;1.00;;;;;;5033371;28;20490;-61
2023/04/24 05:55:56;;;;;;;8.43;6.05;;;15.10;1.00;;;;;;5033009;28;20029;-61
2023/04/24 05:58:22;;;;;;;9.25;6.82;;;15.10;1.00;;;;;;5033281;28;20030;-61
2023/04/24 06:00:48;;;;;;;8.18;6.43;;;15.10;1.00;;;;;;5031710;28;20053;-61
2023/04/24 06:03:14;;;;;;;7.82;6.60;;;15.10;1.00;;;;;;5033091;28;20022;-61
2023/04/24 06:05:39;;;;;;;5.75;5.15;;;15.20;1.00;;;;;;5024752;28;20037;-61
2023/04/24 06:08:05;;;;;;;5.78;5.22;;;15.10;1.00;;;;;;5033433;28;20060;-61
2023/04/24 06:10:31;;;;;;;6.45;5.38;;;15.10;1.00;;;;;;5032864;28;20037;-61
2023/04/24 06:13:00;;;;;;;6.47;5.57;;;15.20;1.00;;;;;;5033083;28;20021;-61
2023/04/24 06:15:27;;;;;;;6.75;5.28;;;15.20;1.00;;;;;;5031664;28;20116;-61
2023/04/24 06:17:53;;;;;;;3.38;2.50;;;15.20;1.00;;;;;;5047336;28;20030;-61
2023/04/24 06:20:19;;;;;;;4.57;2.92;;;15.20;1.00;;;;;;5032928;28;20383;-61
2023/04/24 06:22:45;;;;;;;3.88;2.63;;;15.20;1.00;;;;;;5033124;28;20021;-61
2023/04/24 06:25:10;;;;;;;2.97;2.38;;;15.20;1.00;;;;;;5031628;28;20022;-61
2023/04/24 06:27:36;;;;;;;3.17;2.85;;;15.20;1.00;;;;;;5032862;28;20018;-61
2023/04/24 06:30:03;;;;;;;3.72;2.75;;;15.20;1.00;;;;;;5031691;28;20034;-61
2023/04/24 06:32:30;;;;;;;5.32;3.97;;;15.20;1.00;;;;;;5037116;28;20104;-61
2023/04/24 06:34:56;;;;;;;5.00;4.05;;;15.20;1.00;;;;;;5024313;28;20033;-61
2023/04/24 06:37:21;;;;;;;4.53;4.03;;;15.20;1.00;;;;;;5036816;28;20045;-61
2023/04/24 06:39:47;;;;;;;5.10;4.65;;;15.20;1.00;;;;;;5035544;28;20057;-61
2023/04/24 06:42:13;;;;;;;7.70;5.00;;;15.20;1.00;;;;;;5037232;28;20069;-61
2023/04/24 06:44:40;;;;;;;6.95;4.95;;;15.20;1.00;;;;;;5037031;28;20032;-61
2023/04/24 06:47:10;;;;;;;5.63;4.93;;;15.20;1.00;;;;;;5023211;28;20033;-61
2023/04/24 06:49:39;;;;;;;5.00;4.47;;;15.20;1.00;;;;;;5036898;28;20087;-61
2023/04/24 06:52:06;;;;;;;8.32;5.57;;;15.20;1.00;;;;;;5036547;28;20045;-61
2023/04/24 06:54:32;;;;;;;6.88;4.80;;;15.30;1.00;;;;;;5036611;28;20030;-62
2023/04/24 06:57:00;;;;;;;5.65;4.50;;;15.30;1.00;;;;;;5036678;28;20021;-61
2023/04/24 06:59:27;;;;;;;5.68;4.10;;;15.30;1.00;;;;;;5036699;28;20387;-61
2023/04/24 07:01:53;;;;;;;5.00;4.53;;;15.40;1.00;;;;;;5036631;28;20427;-61
2023/04/24 07:04:19;;;;;;;5.30;4.57;;;15.40;1.00;;;;;;5035222;28;20072;-61
2023/04/24 07:07:12;;;;;;;5.25;4.78;;;15.40;1.00;;;;;;5036404;28;20117;-61
2023/04/24 07:09:40;;;;;;;6.18;4.45;;;15.40;1.00;;;;;;5029723;28;20040;-61
2023/04/24 07:12:07;;;;;;;6.07;4.00;;;15.40;1.00;;;;;;5036215;28;20036;-61
2023/04/24 07:14:32;;;;;;;5.55;4.07;;;15.30;1.00;;;;;;5036300;28;20025;-61
2023/04/24 07:16:58;;;;;;;5.22;4.15;;;15.40;1.00;;;;;;5045979;28;20023;-61
2023/04/24 07:19:24;;;;;;;5.72;4.95;;;15.40;1.00;;;;;;5039971;28;20076;-61
2023/04/24 07:21:50;;;;;;;6.72;5.00;;;15.50;1.00;;;;;;5036340;28;20053;-61
2023/04/24 07:24:15;;;;;;;6.85;4.60;;;15.50;1.00;;;;;;5036316;28;20128;-61
2023/04/24 07:26:41;;;;;;;5.50;4.80;;;15.60;1.00;;;;;;5035806;28;20116;-61
2023/04/24 07:29:07;;;;;;;5.72;4.75;;;15.60;1.00;;;;;;5036164;28;20034;-61
2023/04/24 07:31:33;;;;;;;6.97;4.82;;;15.60;1.00;;;;;;5034570;28;20036;-61
2023/04/24 07:33:59;;;;;;;6.35;4.57;;;15.60;1.00;;;;;;5036067;28;20026;-61
2023/04/24 07:36:25;;;;;;;7.75;5.50;;;15.60;1.00;;;;;;5035519;28;20057;-61
2023/04/24 07:38:52;;;;;;;5.35;4.32;;;15.70;1.00;;;;;;5035768;28;20026;-61
2023/04/24 07:41:17;;;;;;;6.25;4.97;;;15.70;1.00;;;;;;5033929;28;20040;-61
2023/04/24 07:43:45;;;;;;;7.15;4.90;;;15.70;1.00;;;;;;5035961;28;20021;-61
2023/04/24 07:46:11;;;;;;;7.85;4.97;;;15.70;1.00;;;;;;5036493;28;20050;-61
2023/04/24 07:48:37;;;;;;;4.97;4.15;;;15.80;1.00;;;;;;5035724;28;20017;-61
2023/04/24 07:51:02;;;;;;;4.18;3.78;;;15.80;1.00;;;;;;5035484;28;20076;-61
2023/04/24 07:53:28;;;;;;;4.85;4.30;;;15.80;1.00;;;;;;5035394;28;20163;-61
2023/04/24 07:55:55;;;;;;;5.60;4.68;;;15.80;1.00;;;;;;5035016;28;20033;-61
2023/04/24 07:58:22;;;;;;;5.13;4.65;;;15.80;1.00;;;;;;5035396;28;20064;-61
2023/04/24 08:00:47;;;;;;;4.28;3.88;;;15.80;1.00;;;;;;5035635;28;20026;-61
2023/04/24 08:03:18;;;;;;;4.82;4.28;;;15.80;1.00;;;;;;5035411;28;20378;-61
2023/04/24 08:05:43;;;;;;;4.95;4.15;;;15.90;1.00;;;;;;5035157;28;20094;-61
2023/04/24 08:08:09;;;;;;;4.72;4.25;;;16.00;1.00;;;;;;5035225;28;20040;-61
2023/04/24 08:10:35;;;;;;;5.03;3.30;;;16.00;1.00;;;;;;5035313;28;20397;-61
2023/04/24 08:13:00;;;;;;;3.13;2.70;;;16.00;1.00;;;;;;5035120;28;20032;-61
2023/04/24 08:15:27;;;;;;;3.22;2.92;;;16.00;1.00;;;;;;5031926;28;20025;-61
2023/04/24 08:17:53;;;;;;;4.90;3.63;;;16.10;1.00;;;;;;5049324;28;20025;-61
2023/04/24 08:20:18;;;;;;;5.75;2.90;;;16.10;1.00;;;;;;5035183;28;20033;-61
2023/04/24 08:22:47;;;;;;;2.95;2.40;;;16.20;1.00;;;;;;5034865;28;20033;-61
2023/04/24 08:25:12;;;;;;;2.22;2.05;;;16.20;1.00;;;;;;5034923;28;20069;-61
2023/04/24 08:27:38;;;;;;;2.03;1.88;;;16.20;1.00;;;;;;5033709;28;20114;-61
2023/04/24 08:30:06;;;;;;;3.33;2.22;;;16.20;1.00;;;;;;5034760;28;20091;-61
2023/04/24 08:32:32;;;;;;;2.30;1.83;;;16.30;1.00;;;;;;5034612;28;20498;-61
2023/04/24 08:34:59;;;;;;;2.28;1.55;;;16.30;1.00;;;;;;5034996;28;20018;-61
2023/04/24 08:37:26;;;;;;;1.70;1.58;;;16.30;1.00;;;;;;5034815;28;20128;-61
2023/04/24 08:39:52;;;;;;;2.50;1.52;;;16.40;1.00;;;;;;5034538;28;20025;-61
2023/04/24 08:42:18;;;;;;;2.72;1.50;;;16.40;1.00;;;;;;5034614;28;20076;-61
2023/04/24 08:44:45;;;;;;;2.47;1.70;;;16.50;1.00;;;;;;5033236;28;20021;-61
2023/04/24 08:47:11;;;;;;;3.80;1.80;;;16.50;1.00;;;;;;5033330;28;20056;-60
2023/04/24 08:49:38;;;;;;;1.42;1.20;;;16.50;1.00;;;;;;5034702;28;20041;-61
2023/04/24 08:52:05;;;;;;;1.80;1.70;;;16.50;1.00;;;;;;5034647;28;20104;-61
2023/04/24 08:54:31;;;;;;;1.73;1.60;;;16.50;1.00;;;;;;5033956;28;20037;-60
2023/04/24 08:57:01;;;;;;;2.55;1.73;;;16.60;1.00;;;;;;5034167;28;20451;-61
2023/04/24 08:59:27;;;;;;;3.50;1.63;;;16.60;1.00;;;;;;5034514;28;20057;-61
2023/04/24 09:01:55;;;;;;;3.42;2.08;;;16.70;1.00;;;;;;5034298;28;20022;-61
2023/04/24 09:04:24;;;;;;;2.25;1.77;;;16.70;1.00;;;;;;5034419;28;20422;-61
2023/04/24 09:06:59;;;;;;;3.03;1.52;;;16.80;1.00;;;;;;5034098;28;20025;-61
2023/04/24 09:09:26;;;;;;;4.22;2.00;;;16.80;1.00;;;;;;5034067;28;20442;-61
2023/04/24 09:11:55;;;;;;;1.42;1.33;;;16.80;1.00;;;;;;5034416;28;20112;-61
2023/04/24 09:14:21;;;;;;;4.00;1.80;;;16.90;1.00;;;;;;5032770;28;20399;-62
2023/04/24 09:16:48;;;;;;;2.00;1.48;;;16.90;1.00;;;;;;5042122;28;20025;-62
2023/04/24 09:19:13;;;;;;;2.10;1.67;;;16.90;1.00;;;;;;5038292;28;20060;-62
2023/04/24 09:21:41;;;;;;;3.28;1.73;;;16.90;1.00;;;;;;5033802;28;20463;-62
2023/04/24 09:24:22;;;;;;;3.60;2.42;;;17.00;1.00;;;;;;5033882;28;20026;-62
2023/04/24 09:26:48;;;;;;;2.85;2.15;;;17.00;1.00;;;;;;5033618;28;20028;-61
2023/04/24 09:29:18;;;;;;;2.72;1.92;;;17.10;1.00;;;;;;5033808;28;20494;-61
2023/04/24 09:31:45;;;;;;;3.80;2.72;;;17.20;1.00;;;;;;5034187;28;20036;-61
2023/04/24 09:34:11;;;;;;;2.30;2.10;;;17.20;1.00;;;;;;5033879;28;20061;-60
2023/04/24 09:36:39;;;;;;;3.55;2.65;;;17.30;1.00;;;;;;5018551;28;20088;-60
2023/04/24 09:39:12;;;;;;;2.00;1.80;;;17.40;1.00;;;;;;5023000;28;20033;-61
2023/04/24 09:41:57;;;;;;;1.98;1.67;;;17.50;1.00;;;;;;5033817;28;20026;-61
2023/04/24 09:44:26;;;;;;;4.85;2.92;;;17.50;1.00;;;;;;5032746;28;20046;-61
2023/04/24 09:46:57;;;;;;;4.25;2.22;;;17.50;1.00;;;;;;5033210;28;20108;-61
2023/04/24 09:49:25;;;;;;;3.97;2.05;;;17.60;1.00;;;;;;5033835;28;20041;-61
2023/04/24 09:51:51;;;;;;;2.90;2.38;;;17.60;1.00;;;;;;5028000;28;20467;-60
2023/04/24 09:54:23;;;;;;;3.67;2.22;;;17.60;1.00;;;;;;5032451;28;20032;-61
2023/04/24 09:56:50;;;;;;;4.18;2.30;;;17.70;1.00;;;;;;5033002;28;20475;-61
2023/04/24 09:59:20;;;;;;;2.33;1.90;;;17.70;1.00;;;;;;5032952;28;20427;-60
2023/04/24 10:01:48;;;;;;;3.60;1.83;;;17.70;1.00;;;;;;5032951;28;20021;-61
2023/04/24 10:04:22;;;;;;;1.75;1.65;;;17.80;1.00;;;;;;5032957;28;20045;-61
2023/04/24 10:06:49;;;;;;;3.13;2.78;;;17.90;1.00;;;;;;5033094;28;20112;-61
2023/04/24 10:09:16;;;;;;;2.58;1.95;;;18.00;1.00;;;;;;5031712;28;20063;-61
2023/04/24 10:11:46;;;;;;;2.20;2.10;;;17.90;1.00;;;;;;5033159;28;20352;-62
2023/04/24 10:14:20;;;;;;;2.40;2.17;;;18.00;1.00;;;;;;5033087;28;20049;-60
2023/04/24 10:16:47;;;;;;;3.05;1.92;;;18.00;1.00;;;;;;5033161;28;20029;-60
2023/04/24 10:19:15;;;;;;;1.77;1.67;;;18.00;1.00;;;;;;5032119;28;20021;-61
2023/04/24 10:21:42;;;;;;;1.80;1.70;;;18.20;1.00;;;;;;5018992;28;20030;-61
2023/04/24 10:24:12;;;;;;;2.63;1.83;;;18.30;1.00;;;;;;5032970;28;20063;-60
2023/04/24 10:26:39;;;;;;;1.52;1.40;;;18.30;1.00;;;;;;5032682;28;20022;-61
2023/04/24 10:29:48;;;;;;;1.23;1.08;;;18.30;1.00;;;;;;5032780;28;20036;-61
2023/04/24 10:32:14;;;;;;;2.05;1.20;;;18.40;1.00;;;;;;5021320;28;20021;-60
2023/04/24 10:34:40;;;;;;;1.05;1.00;;;18.40;1.00;;;;;;5031513;28;20037;-61
2023/04/24 10:37:06;;;;;;;1.73;1.20;;;18.40;1.00;;;;;;5031468;28;20044;-61
2023/04/24 10:39:33;;;;;;;1.10;0.90;;;18.50;1.00;;;;;;5032774;28;20037;-61
2023/04/24 10:41:59;;;;;;;1.50;1.08;;;18.60;1.00;;;;;;5031587;28;20030;-61
2023/04/24 10:44:24;;;;;;;1.00;0.82;;;18.80;1.00;;;;;;5033000;28;20121;-61
2023/04/24 10:46:55;;;;;;;0.90;0.77;;;18.70;1.00;;;;;;5031875;28;20029;-61
2023/04/24 10:49:31;;;;;;;3.03;1.38;;;18.90;1.00;;;;;;5032710;28;20034;-61
2023/04/24 10:52:04;;;;;;;2.45;1.30;;;18.90;1.00;;;;;;5031477;28;20509;-61
2023/04/24 10:54:41;;;;;;;0.90;0.80;;;19.10;1.00;;;;;;5032949;28;20426;-61
2023/04/24 10:57:21;;;;;;;2.90;1.52;;;19.20;1.00;;;;;;5032471;28;20100;-61
2023/04/24 10:59:51;;;;;;;1.27;1.17;;;19.20;1.00;;;;;;5032835;28;20021;-61
2023/04/24 11:02:17;;;;;;;0.85;0.77;;;19.30;1.00;;;;;;5033855;28;20034;-61
2023/04/24 11:04:44;;;;;;;1.42;1.33;;;19.30;1.00;;;;;;5033187;28;20028;-61
2023/04/24 11:07:13;;;;;;;0.80;0.80;;;19.40;1.00;;;;;;5032489;28;20025;-61
2023/04/24 11:09:41;;;;;;;0.63;0.45;;;19.40;1.00;;;;;;5032460;28;20045;-61
2023/04/24 11:12:10;;;;;;;1.48;0.70;;;19.50;1.00;;;;;;5032487;28;20472;-61
2023/04/24 11:14:59;;;;;;;2.20;0.70;;;19.50;1.00;;;;;;5032520;28;20029;-61
2023/04/24 11:17:37;;;;;;;0.70;0.70;;;19.60;1.00;;;;;;5030608;28;20025;-61
2023/04/24 11:20:11;;;;;;;0.63;0.50;;;19.70;1.00;;;;;;5036264;28;20102;-61
2023/04/24 11:22:39;;;;;;;0.65;0.60;;;19.80;1.00;;;;;;5036114;28;20028;-61
2023/04/24 11:25:06;;;;;;;1.48;1.08;;;19.90;1.00;;;;;;5036036;28;20483;-61
2023/04/24 11:27:43;;;;;;;1.98;0.82;;;19.90;1.00;;;;;;5036087;28;20036;-61
2023/04/24 11:30:10;;;;;;;1.60;0.82;;;20.10;1.00;;;;;;5035934;28;20047;-60
2023/04/24 11:32:37;;;;;;;0.85;0.82;;;20.20;1.00;;;;;;5035858;28;20492;-61
2023/04/24 11:35:10;;;;;;;1.10;1.02;;;20.40;1.00;;;;;;5035858;28;20031;-61
2023/04/24 11:37:36;;;;;;;1.48;0.80;;;20.50;1.00;;;;;;5035567;28;20499;-61
2023/04/24 11:40:04;;;;;;;1.02;0.95;;;20.50;1.00;;;;;;5036053;28;20025;-61
2023/04/24 11:42:34;;;;;;;0.63;0.60;;;20.70;1.00;;;;;;5035618;28;20045;-61
2023/04/24 11:45:01;;;;;;;1.65;1.20;;;21.00;1.00;;;;;;5035732;28;20017;-61
2023/04/24 11:47:29;;;;;;;1.55;0.73;;;21.30;1.00;;;;;;5035980;28;20125;-61
2023/04/24 11:53:36;;;;;;;1.23;0.77;;;21.60;1.00;;;;;;5033068;28;20095;-61
2023/04/24 11:56:03;;;;;;;1.50;1.10;;;22.40;1.00;;;;;;5035689;28;20045;-61
2023/04/24 11:58:35;;;;;;;2.05;1.00;;;26.40;1.00;;;;;;5035292;28;20376;-61
2023/04/24 12:01:01;;;;;;;0.90;0.70;;;30.40;1.00;;;;;;5035659;28;20022;-61
2023/04/24 12:03:27;;;;;;;1.70;1.15;;;31.70;1.00;;;;;;5035728;28;20025;-61
2023/04/24 12:05:52;;;;;;;3.65;2.55;;;34.70;1.00;;;;;;5035578;28;20018;-61
2023/04/24 12:08:30;;;;;;;1.75;1.27;;;36.50;99.90;;;;;;5045832;28;20032;-61
2023/04/24 12:10:55;;;;;;;0.68;0.68;;;38.70;99.90;;;;;;5036254;28;20025;-61
2023/04/24 12:13:21;;;;;;;1.70;1.05;;;39.30;99.90;;;;;;5035264;28;20063;-61
2023/04/24 12:15:50;;;;;;;3.80;2.38;;;39.10;99.90;;;;;;5035057;28;20044;-61
2023/04/24 12:18:18;;;;;;;2.25;1.92;;;39.80;99.90;;;;;;5043622;28;20025;-61
2023/04/24 12:20:44;;;;;;;1.83;1.60;;;40.20;99.90;;;;;;5040350;28;20427;-61
2023/04/24 12:23:11;;;;;;;1.63;1.50;;;41.90;99.90;;;;;;5035217;28;20483;-61
2023/04/24 12:25:38;;;;;;;1.83;1.73;;;41.90;99.90;;;;;;5034956;28;20483;-60
2023/04/24 12:28:04;;;;;;;2.65;1.67;;;42.40;99.90;;;;;;5033485;28;20029;-60
2023/04/24 12:30:31;;;;;;;2.45;2.25;;;41.90;99.90;;;;;;5034706;28;20048;-60
2023/04/24 12:33:01;;;;;;;1.80;1.70;;;40.00;99.90;;;;;;5033508;28;20064;-60
2023/04/24 12:35:31;;;;;;;1.67;1.50;;;38.70;99.90;;;;;;5035001;28;20037;-60
2023/04/24 12:38:12;;;;;;;1.27;1.27;;;39.20;99.90;;;;;;5034459;28;20061;-60
2023/04/24 12:40:38;;;;;;;1.33;1.33;;;40.80;99.90;;;;;;5034971;28;20026;-60
2023/04/24 12:43:15;;;;;;;1.33;1.33;;;42.80;99.90;;;;;;5034448;28;20030;-60
2023/04/24 12:45:40;;;;;;;2.00;1.90;;;44.00;99.90;;;;;;5034658;28;20060;-60
2023/04/24 12:48:06;;;;;;;1.75;1.65;;;43.80;99.90;;;;;;5033471;28;20072;-60
2023/04/24 12:50:32;;;;;;;1.45;1.45;;;43.80;99.90;;;;;;5034682;28;20044;-60
2023/04/24 12:52:57;;;;;;;1.60;1.60;;;42.20;99.90;;;;;;5034766;28;20022;-60
2023/04/24 12:55:23;;;;;;;1.83;1.73;;;42.00;99.90;;;;;;5033503;28;20510;-60